Terminal Aerodrome Forecast
Issued by NWS

Home | Current Version | Previous Version | Text Only | Print | Product List | Glossary On
Versions: 1 2 3 4 5 6 7 8 9 10 11 12 13
000
FTUS46 KLOX 020529
TAFPRB
TAF
KPRB 020529Z 0206/0306 22007KT P6SM VCSH SCT080 BKN150
     FM021500 VRB03KT P6SM SCT150
     FM022100 22015G22KT P6SM SCT150
     FM030400 22010KT P6SM SCT150=

USA.gov is the U.S. government's official web portal to all federal, state and local government web resources and services.